createdAt,value
2023-03-11T06:04:16.183Z,7.60
2023-03-11T06:09:19.701Z,7.60
2023-03-11T06:14:23.485Z,7.70
2023-03-11T06:19:28.439Z,7.70
2023-03-11T06:24:31.976Z,7.70
2023-03-11T06:29:36.122Z,7.70
2023-03-11T06:34:41.203Z,7.70
2023-03-11T06:39:44.881Z,7.60
2023-03-11T06:44:49.385Z,7.60
2023-03-11T06:49:54.297Z,7.50
2023-03-11T06:54:57.683Z,7.60
2023-03-11T07:00:06.670Z,7.60
2023-03-11T07:05:13.374Z,7.60
2023-03-11T07:10:17.093Z,7.60
2023-03-11T07:15:20.534Z,7.60
2023-03-11T07:20:25.337Z,7.70
2023-03-11T07:25:28.667Z,7.70
2023-03-11T07:30:31.977Z,7.70
2023-03-11T07:35:37.756Z,7.80
2023-03-11T07:46:57.457Z,7.90
2023-03-11T07:52:02.461Z,7.90
2023-03-11T07:57:07.347Z,8.00
2023-03-11T08:02:11.010Z,8.00
2023-03-11T08:07:15.729Z,8.00
2023-03-11T08:12:19.124Z,8.10
2023-03-11T08:17:22.418Z,8.10
2023-03-11T08:22:27.241Z,8.30
2023-03-11T08:27:30.600Z,8.30
2023-03-11T08:32:34.118Z,8.40
2023-03-11T08:37:38.796Z,8.50
2023-03-11T08:42:42.130Z,8.60
2023-03-11T08:47:45.763Z,8.70
2023-03-11T08:52:50.721Z,8.80
2023-03-11T08:57:54.110Z,8.90
2023-03-11T09:02:57.496Z,8.90
2023-03-11T09:08:05.206Z,9.00
2023-03-11T09:13:08.844Z,9.00
2023-03-11T09:18:13.211Z,9.10
2023-03-11T09:23:18.651Z,9.20
2023-03-11T09:28:21.952Z,9.30
2023-03-11T09:33:25.633Z,9.30
2023-03-11T09:38:30.335Z,9.40
2023-03-11T09:43:45.544Z,9.40
2023-03-11T09:48:50.951Z,9.70
2023-03-11T09:53:58.698Z,9.60
2023-03-11T09:59:03.670Z,9.60
2023-03-11T10:04:09.958Z,9.90
2023-03-11T10:09:27.538Z,9.90
2023-03-11T10:14:36.239Z,9.90
2023-03-11T10:19:45.393Z,9.90
2023-03-11T10:24:57.410Z,10.10
2023-03-11T10:30:04.112Z,10.10
2023-03-11T10:35:12.753Z,10.10
2023-03-11T10:40:30.466Z,10.10
2023-03-11T10:45:37.941Z,10.20
2023-03-11T10:50:46.337Z,10.30
2023-03-11T10:55:51.972Z,10.50
2023-03-11T11:01:02.742Z,10.70
2023-03-11T11:06:07.418Z,10.90
2023-03-11T11:11:21.389Z,10.90
2023-03-11T11:16:25.338Z,10.90
2023-03-11T11:21:30.226Z,10.90
2023-03-11T11:26:34.917Z,11.00
2023-03-11T11:31:38.905Z,11.10
2023-03-11T11:36:42.618Z,11.10
2023-03-11T11:41:49.412Z,11.20
2023-03-11T11:46:56.592Z,11.30
2023-03-11T11:52:01.786Z,11.50
2023-03-11T11:57:12.153Z,11.60
2023-03-11T12:02:26.113Z,11.60
2023-03-11T12:07:34.569Z,11.70
2023-03-11T12:12:43.198Z,11.90
2023-03-11T12:17:47.810Z,12.00
2023-03-11T12:23:04.690Z,12.00
2023-03-11T12:28:18.838Z,12.00
2023-03-11T12:33:27.191Z,12.10
2023-03-11T12:38:33.794Z,12.20
2023-03-11T12:44:11.222Z,12.50
2023-03-11T12:49:15.971Z,12.70
2023-03-11T12:54:23.450Z,12.80
2023-03-11T12:59:51.880Z,13.00
2023-03-11T13:05:00.290Z,13.10
2023-03-11T13:10:06.933Z,13.60
2023-03-11T13:15:23.121Z,14.00
2023-03-11T13:20:49.185Z,14.20
2023-03-11T13:26:13.942Z,14.50
2023-03-11T13:31:35.621Z,14.90
2023-03-11T13:36:48.812Z,15.20
2023-03-11T13:41:52.204Z,15.30
2023-03-11T13:46:58.066Z,15.40
2023-03-11T13:52:03.355Z,15.40
2023-03-11T13:57:07.005Z,15.40
2023-03-11T14:02:17.269Z,15.30
2023-03-11T14:07:24.928Z,15.20
2023-03-11T14:12:32.046Z,15.10
2023-03-11T14:17:35.584Z,15.00
2023-03-11T14:22:40.358Z,15.00
2023-03-11T14:27:52.752Z,15.20
2023-03-11T14:33:00.680Z,15.40
2023-03-11T14:38:07.001Z,15.60
2023-03-11T14:43:12.654Z,16.30
2023-03-11T14:48:19.839Z,17.00
2023-03-11T14:53:25.800Z,17.40
2023-03-11T14:58:31.495Z,17.80
2023-03-11T15:03:35.942Z,18.20
2023-03-11T15:08:45.209Z,18.60
2023-03-11T15:13:51.172Z,18.40
2023-03-11T15:18:55.508Z,18.20
2023-03-11T15:24:05.058Z,18.10
2023-03-11T15:29:14.683Z,18.00
2023-03-11T15:34:26.284Z,17.90
2023-03-11T15:39:43.863Z,17.80
2023-03-11T15:44:55.069Z,17.70
2023-03-11T15:49:58.478Z,17.60
2023-03-11T15:55:03.275Z,17.60
2023-03-11T16:00:08.429Z,17.60
2023-03-11T16:05:16.357Z,17.50
2023-03-11T16:10:21.939Z,17.40
2023-03-11T16:15:28.465Z,17.40
2023-03-11T16:20:34.189Z,17.50
2023-03-11T16:25:40.074Z,17.50
2023-03-11T16:30:43.812Z,17.60
2023-03-11T16:35:47.424Z,17.50
2023-03-11T16:40:56.440Z,17.40
2023-03-11T16:45:59.865Z,17.40
2023-03-11T16:51:03.216Z,17.30
2023-03-11T16:56:08.514Z,17.20
2023-03-11T17:01:12.744Z,17.20
2023-03-11T17:06:16.269Z,17.10
2023-03-11T17:11:21.675Z,17.00
2023-03-11T17:16:25.153Z,16.90
2023-03-11T17:21:28.536Z,16.80
2023-03-11T17:26:33.332Z,16.70
2023-03-11T17:31:36.820Z,16.60
2023-03-11T17:36:40.234Z,16.50
2023-03-11T17:41:44.931Z,16.50
2023-03-11T17:46:48.324Z,16.40
2023-03-11T17:51:51.666Z,16.40
2023-03-11T17:56:56.674Z,16.30
2023-03-11T18:02:00.200Z,16.20
2023-03-11T18:07:03.678Z,16.10
2023-03-11T18:12:08.533Z,16.00
2023-03-11T18:17:11.933Z,15.80
2023-03-11T18:22:15.548Z,15.70
2023-03-11T18:27:20.457Z,15.60
2023-03-11T18:32:24.783Z,15.50
2023-03-11T18:37:28.168Z,15.50
2023-03-11T18:42:33.107Z,15.40
2023-03-11T18:47:36.529Z,15.40
2023-03-11T18:52:39.846Z,15.30
2023-03-11T18:57:44.528Z,15.30
2023-03-11T19:02:50.906Z,15.30
2023-03-11T19:07:54.469Z,15.30
2023-03-11T19:12:59.139Z,15.20
2023-03-11T19:18:06.895Z,15.20
2023-03-11T19:23:11.430Z,15.10
2023-03-11T19:28:16.147Z,15.00
2023-03-11T19:33:19.745Z,14.90
2023-03-11T19:38:23.449Z,14.80
2023-03-11T19:43:28.510Z,14.70
2023-03-11T19:48:31.968Z,14.60
2023-03-11T19:53:35.972Z,14.50
2023-03-11T19:58:41.998Z,14.50
2023-03-11T20:03:45.497Z,14.50
2023-03-11T20:08:48.842Z,14.50
2023-03-11T20:13:53.701Z,14.50
2023-03-11T20:18:57.066Z,14.50
2023-03-11T20:24:01.258Z,14.60
2023-03-11T20:29:06.522Z,14.60
2023-03-11T20:34:10.611Z,14.50
2023-03-11T20:39:14.010Z,14.50
2023-03-11T20:44:18.880Z,14.50
2023-03-11T20:49:22.346Z,14.50
2023-03-11T20:54:25.726Z,14.50
2023-03-11T20:59:30.706Z,14.50
2023-03-11T21:04:35.539Z,14.50
2023-03-11T21:09:39.030Z,14.40
2023-03-11T21:14:43.766Z,14.40
2023-03-11T21:19:47.347Z,14.40
2023-03-11T21:24:52.150Z,14.40
2023-03-11T21:29:57.261Z,14.30
2023-03-11T21:35:01.510Z,14.30
2023-03-11T21:40:06.072Z,14.20
2023-03-11T21:45:11.643Z,14.20
2023-03-11T21:50:15.184Z,14.20
2023-03-11T21:55:18.828Z,14.10
2023-03-11T22:00:23.725Z,14.10
2023-03-11T22:05:27.367Z,14.00
2023-03-11T22:10:32.092Z,14.00
2023-03-11T22:15:36.984Z,14.00
2023-03-11T22:20:41.091Z,14.00
2023-03-11T22:25:44.436Z,14.00
2023-03-11T22:30:49.115Z,14.00
2023-03-11T22:35:53.754Z,13.90
2023-03-11T22:40:57.244Z,13.90
2023-03-11T22:46:02.506Z,13.90
2023-03-11T22:51:07.331Z,13.90
2023-03-11T22:56:12.314Z,13.90
2023-03-11T23:01:17.445Z,13.80
2023-03-11T23:06:21.031Z,13.80
2023-03-11T23:11:24.455Z,13.70
2023-03-11T23:16:29.137Z,13.70
2023-03-11T23:21:33.326Z,13.60
2023-03-11T23:26:37.136Z,13.60
